createdAt,value
2018-10-09T00:00:20.643Z,59.63
2018-10-09T00:02:48.340Z,60.03
2018-10-09T00:05:16.090Z,59.31
2018-10-09T00:07:43.851Z,59.31
2018-10-09T00:10:11.534Z,59.97
2018-10-09T00:12:39.175Z,59.42
2018-10-09T00:15:06.840Z,59.37
2018-10-09T00:17:34.592Z,59.61
2018-10-09T00:20:02.293Z,60.12
2018-10-09T00:22:29.985Z,60.18
2018-10-09T00:24:57.670Z,59.93
2018-10-09T00:27:25.306Z,60.14
2018-10-09T00:29:53.034Z,59.84
2018-10-09T00:32:20.714Z,59.58
2018-10-09T00:34:48.378Z,60.30
2018-10-09T00:37:16.010Z,60.00
2018-10-09T00:39:43.652Z,60.17
2018-10-09T00:42:11.559Z,60.19
2018-10-09T00:44:39.338Z,59.47
2018-10-09T00:47:07.030Z,59.83
2018-10-09T00:49:34.778Z,59.41
2018-10-09T00:52:02.470Z,59.98
2018-10-09T00:54:30.204Z,59.48
2018-10-09T00:56:57.990Z,59.51
2018-10-09T00:59:25.743Z,60.28
2018-10-09T01:01:53.459Z,59.85
2018-10-09T01:04:21.177Z,59.73
2018-10-09T01:06:48.937Z,59.80
2018-10-09T01:09:16.741Z,59.68
2018-10-09T01:11:44.331Z,60.18
2018-10-09T01:14:12.293Z,59.70
2018-10-09T01:16:39.912Z,59.58
2018-10-09T01:19:07.598Z,60.07
2018-10-09T01:21:35.584Z,59.70
2018-10-09T01:24:03.334Z,60.13
2018-10-09T01:26:31.017Z,59.73
2018-10-09T01:28:58.692Z,59.62
2018-10-09T01:31:26.402Z,59.51
2018-10-09T01:33:54.058Z,60.05
2018-10-09T01:36:22.356Z,59.63
2018-10-09T01:38:50.015Z,59.88
2018-10-09T01:41:17.656Z,59.63
2018-10-09T01:43:45.292Z,59.82
2018-10-09T01:46:12.988Z,59.62
2018-10-09T01:48:40.668Z,60.26
2018-10-09T01:51:08.320Z,60.35
2018-10-09T01:53:35.974Z,59.83
2018-10-09T01:56:03.697Z,60.17
2018-10-09T01:58:31.349Z,60.15
2018-10-09T02:00:59.050Z,59.84
2018-10-09T02:03:26.690Z,60.06
2018-10-09T02:05:54.365Z,60.35
2018-10-09T02:08:22.019Z,60.07
2018-10-09T02:10:49.698Z,59.55
2018-10-09T02:13:17.426Z,59.55
2018-10-09T02:15:45.142Z,60.26
2018-10-09T02:18:12.958Z,60.30
2018-10-09T02:20:40.630Z,59.42
2018-10-09T02:23:08.379Z,59.83
2018-10-09T02:25:36.034Z,59.45
2018-10-09T02:28:03.724Z,60.23
2018-10-09T02:30:31.404Z,59.89
2018-10-09T02:32:59.099Z,59.73
2018-10-09T02:35:26.733Z,59.57
2018-10-09T02:37:54.418Z,60.14
2018-10-09T02:40:22.160Z,59.67
2018-10-09T02:42:50.105Z,59.76
2018-10-09T02:45:17.801Z,59.51
2018-10-09T02:47:45.522Z,60.29
2018-10-09T02:50:13.285Z,59.68
2018-10-09T02:52:40.989Z,59.58
2018-10-09T02:55:08.650Z,60.34
2018-10-09T02:57:36.498Z,60.29
2018-10-09T03:00:04.152Z,59.44
2018-10-09T03:02:31.869Z,60.25
2018-10-09T03:04:59.546Z,59.46
2018-10-09T03:07:27.203Z,59.77
2018-10-09T03:09:54.884Z,60.11
2018-10-09T03:12:22.617Z,59.40
2018-10-09T03:14:50.327Z,59.42
2018-10-09T03:17:17.985Z,59.44
2018-10-09T03:19:45.633Z,59.93
2018-10-09T03:22:13.343Z,60.22
2018-10-09T03:24:41.048Z,59.95
2018-10-09T03:27:08.769Z,60.23
2018-10-09T03:29:36.880Z,60.09
2018-10-09T03:32:04.646Z,60.42
2018-10-09T03:34:32.447Z,60.26
2018-10-09T03:37:00.068Z,60.52
2018-10-09T03:39:27.737Z,60.33
2018-10-09T03:41:55.385Z,60.64
2018-10-09T03:44:23.106Z,60.67
2018-10-09T03:46:50.867Z,59.74
2018-10-09T03:49:18.521Z,60.71
2018-10-09T03:51:46.449Z,60.17
2018-10-09T03:54:14.202Z,60.52
2018-10-09T03:56:41.863Z,60.97
2018-10-09T03:59:09.558Z,60.22
2018-10-09T04:01:37.276Z,60.50
2018-10-09T04:04:04.978Z,60.30
2018-10-09T04:06:32.769Z,60.14
2018-10-09T04:09:00.466Z,60.30
2018-10-09T04:11:28.168Z,60.34
2018-10-09T04:13:55.912Z,60.83
2018-10-09T04:16:23.606Z,60.61
2018-10-09T04:18:51.304Z,60.78
2018-10-09T04:21:19.037Z,60.90
2018-10-09T04:23:46.782Z,60.91
2018-10-09T04:26:14.459Z,60.91
2018-10-09T04:28:42.124Z,60.84
2018-10-09T04:31:09.768Z,61.12
2018-10-09T04:33:37.438Z,61.06
2018-10-09T04:36:05.181Z,60.54
2018-10-09T04:38:32.876Z,60.56
2018-10-09T04:41:00.554Z,60.23
2018-10-09T04:43:28.199Z,60.41
2018-10-09T04:45:55.911Z,60.16
2018-10-09T04:48:23.585Z,60.46
2018-10-09T04:50:51.228Z,60.54
2018-10-09T04:53:18.875Z,60.68
2018-10-09T04:55:46.547Z,60.15
2018-10-09T04:58:14.230Z,60.86
2018-10-09T05:00:41.970Z,60.35
2018-10-09T05:03:09.589Z,60.12
2018-10-09T05:05:37.218Z,60.87
2018-10-09T05:08:04.885Z,60.82
2018-10-09T05:10:32.534Z,60.67
2018-10-09T05:13:00.159Z,60.40
2018-10-09T05:15:27.786Z,60.03
2018-10-09T05:17:55.482Z,60.50
2018-10-09T05:20:23.092Z,60.49
2018-10-09T05:22:50.748Z,60.46
2018-10-09T05:25:18.377Z,60.21
2018-10-09T05:27:46.002Z,59.94
2018-10-09T05:30:13.634Z,59.58
2018-10-09T05:32:41.266Z,60.05
2018-10-09T05:35:08.889Z,59.50
2018-10-09T05:37:36.611Z,60.22
2018-10-09T05:40:04.230Z,59.48
2018-10-09T05:42:31.881Z,60.24
2018-10-09T05:45:05.945Z,60.24
2018-10-09T05:47:33.596Z,59.75
2018-10-09T05:50:01.408Z,59.69
2018-10-09T05:52:29.124Z,59.62
2018-10-09T05:54:56.749Z,59.89
2018-10-09T05:57:24.369Z,59.92
2018-10-09T05:59:52.015Z,60.15
2018-10-09T06:02:19.644Z,59.33
2018-10-09T06:04:47.289Z,59.49
2018-10-09T06:07:14.917Z,59.51
2018-10-09T06:09:42.550Z,60.02
2018-10-09T06:12:10.227Z,59.13
2018-10-09T06:14:37.858Z,59.85
2018-10-09T06:17:05.487Z,59.37
2018-10-09T06:19:33.117Z,59.47
2018-10-09T06:22:00.787Z,59.77
2018-10-09T06:24:28.413Z,58.96
2018-10-09T06:26:56.121Z,59.06
2018-10-09T06:29:23.782Z,58.76
2018-10-09T06:31:51.417Z,58.65
2018-10-09T06:34:19.063Z,58.63
2018-10-09T06:36:46.706Z,58.58
2018-10-09T06:39:14.366Z,59.24
2018-10-09T06:41:42.660Z,58.51
2018-10-09T06:44:10.290Z,58.52
2018-10-09T06:46:38.476Z,58.93
2018-10-09T06:49:06.225Z,59.22
2018-10-09T06:51:34.087Z,59.16
2018-10-09T06:54:01.879Z,59.15
2018-10-09T06:56:29.489Z,59.13
2018-10-09T06:58:57.153Z,58.41
2018-10-09T07:01:25.402Z,58.83
2018-10-09T07:03:53.222Z,58.64
2018-10-09T07:06:21.046Z,58.77
2018-10-09T07:08:48.907Z,58.81
2018-10-09T07:11:16.784Z,59.26
2018-10-09T07:13:44.601Z,59.31
2018-10-09T07:16:12.393Z,58.57
2018-10-09T07:18:40.241Z,59.40
2018-10-09T07:21:08.039Z,58.69
2018-10-09T07:23:35.906Z,58.36
2018-10-09T07:26:03.639Z,58.51
2018-10-09T07:28:31.461Z,59.19
2018-10-09T07:30:59.229Z,58.63
2018-10-09T07:33:27.229Z,59.17
2018-10-09T07:35:55.009Z,58.97
2018-10-09T07:38:22.870Z,58.89
2018-10-09T07:40:50.737Z,59.34
2018-10-09T07:43:18.469Z,58.69
2018-10-09T07:45:46.169Z,59.42
2018-10-09T07:48:13.872Z,59.13
2018-10-09T07:50:41.557Z,59.42
2018-10-09T07:53:09.223Z,59.26
2018-10-09T07:55:36.960Z,59.34
2018-10-09T07:58:04.645Z,59.28
2018-10-09T08:00:32.855Z,58.73
2018-10-09T08:03:00.546Z,58.79
2018-10-09T08:05:28.405Z,58.58
2018-10-09T08:07:56.312Z,58.96
2018-10-09T08:10:24.096Z,59.01
2018-10-09T08:12:52.018Z,58.91
2018-10-09T08:15:19.910Z,58.80
2018-10-09T08:17:47.629Z,59.67
2018-10-09T08:20:15.657Z,59.74
2018-10-09T08:22:43.714Z,58.98
2018-10-09T08:25:11.333Z,58.99
2018-10-09T08:27:39.254Z,59.19
2018-10-09T08:30:07.299Z,59.31
2018-10-09T08:32:35.045Z,58.93
2018-10-09T08:35:03.014Z,59.74
2018-10-09T08:37:30.950Z,59.90
2018-10-09T08:39:58.806Z,59.71
2018-10-09T08:42:27.291Z,59.17
2018-10-09T08:44:55.203Z,59.17
2018-10-09T08:47:22.907Z,59.44
2018-10-09T08:49:50.620Z,59.72
2018-10-09T08:52:18.305Z,59.63
2018-10-09T08:54:45.985Z,59.66
2018-10-09T08:57:13.732Z,59.70
2018-10-09T08:59:41.741Z,58.98
2018-10-09T09:02:09.545Z,59.80
2018-10-09T09:04:38.005Z,59.28
2018-10-09T09:07:05.703Z,59.82
2018-10-09T09:09:33.547Z,59.36
2018-10-09T09:12:01.196Z,59.44
2018-10-09T09:14:29.100Z,59.74
2018-10-09T09:16:56.826Z,59.17
2018-10-09T09:19:24.489Z,59.37
2018-10-09T09:21:52.186Z,59.20
2018-10-09T09:24:19.860Z,59.56
2018-10-09T09:26:47.602Z,59.81
2018-10-09T09:29:15.310Z,59.04
2018-10-09T09:31:43.066Z,59.85
2018-10-09T09:34:10.849Z,59.13
2018-10-09T09:36:38.635Z,59.32
2018-10-09T09:39:07.088Z,59.33
2018-10-09T09:41:34.798Z,59.85
2018-10-09T09:44:02.437Z,59.90
2018-10-09T09:46:30.073Z,58.96
2018-10-09T09:48:57.701Z,59.53
2018-10-09T09:51:25.341Z,59.23
2018-10-09T09:53:52.979Z,59.70
2018-10-09T09:56:20.643Z,59.06
2018-10-09T09:58:48.427Z,59.34
2018-10-09T10:01:15.950Z,59.26
2018-10-09T10:03:43.765Z,59.23
2018-10-09T10:06:11.305Z,59.10
2018-10-09T10:08:39.284Z,58.94
2018-10-09T10:11:06.905Z,59.80
2018-10-09T10:13:34.551Z,59.79
2018-10-09T10:16:02.302Z,58.94
2018-10-09T10:18:30.094Z,58.92
2018-10-09T10:20:57.765Z,59.49
2018-10-09T10:23:25.638Z,59.03
2018-10-09T10:25:53.426Z,58.95
2018-10-09T10:28:21.409Z,58.92
2018-10-09T10:30:49.105Z,59.24
2018-10-09T10:33:17.011Z,58.91
2018-10-09T10:35:44.846Z,59.38
2018-10-09T10:38:12.554Z,59.46
2018-10-09T10:40:40.503Z,59.07
2018-10-09T10:43:08.261Z,59.07
2018-10-09T10:45:35.914Z,59.32
2018-10-09T10:48:03.550Z,58.80
2018-10-09T10:50:31.184Z,59.50
2018-10-09T10:52:58.798Z,59.32
2018-10-09T10:55:26.447Z,58.85
2018-10-09T10:57:54.086Z,59.51
2018-10-09T11:00:21.749Z,59.48
2018-10-09T11:02:49.399Z,58.96
2018-10-09T11:05:17.036Z,58.65
2018-10-09T11:07:44.686Z,58.84
2018-10-09T11:10:12.306Z,59.25
2018-10-09T11:12:39.941Z,59.34
2018-10-09T11:15:07.642Z,58.92
2018-10-09T11:17:35.282Z,59.04
2018-10-09T11:20:02.963Z,59.40
2018-10-09T11:22:30.621Z,58.95
2018-10-09T11:24:58.276Z,59.28
2018-10-09T11:27:25.956Z,59.14
2018-10-09T11:29:53.608Z,59.50
2018-10-09T11:32:21.271Z,59.56
2018-10-09T11:34:48.933Z,58.69
2018-10-09T11:37:16.655Z,59.26
2018-10-09T11:39:44.350Z,58.77
2018-10-09T11:42:12.160Z,59.02
2018-10-09T11:44:39.861Z,59.63
2018-10-09T11:47:07.496Z,58.94
2018-10-09T11:49:35.124Z,58.82
2018-10-09T11:52:02.870Z,59.13
2018-10-09T11:54:30.502Z,59.32
2018-10-09T11:56:58.160Z,58.79
2018-10-09T11:59:25.844Z,59.28
2018-10-09T12:01:53.518Z,58.90
2018-10-09T12:04:21.149Z,59.00
2018-10-09T12:06:48.893Z,59.56
2018-10-09T12:09:16.541Z,58.80
2018-10-09T12:11:44.185Z,58.80
2018-10-09T12:14:12.901Z,59.31
2018-10-09T12:16:40.552Z,58.81
2018-10-09T12:19:08.518Z,59.36
2018-10-09T12:21:37.129Z,59.40
2018-10-09T12:24:04.755Z,59.54
2018-10-09T12:26:32.406Z,59.68
2018-10-09T12:29:00.035Z,58.90
2018-10-09T12:31:27.756Z,59.48
2018-10-09T12:33:55.397Z,59.58
2018-10-09T12:36:23.019Z,59.27
2018-10-09T12:38:50.777Z,59.14
2018-10-09T12:41:18.425Z,59.38
2018-10-09T12:43:46.702Z,58.82
2018-10-09T12:46:14.557Z,58.94
2018-10-09T12:48:42.180Z,59.28
2018-10-09T12:51:09.865Z,59.50
2018-10-09T12:53:37.633Z,59.07
2018-10-09T12:56:05.285Z,58.82
2018-10-09T12:58:32.999Z,59.07
2018-10-09T13:01:00.782Z,59.11
2018-10-09T13:03:28.441Z,59.54
2018-10-09T13:05:56.749Z,59.04
2018-10-09T13:08:24.446Z,58.74
2018-10-09T13:10:52.797Z,59.20
2018-10-09T13:13:20.661Z,59.73
2018-10-09T13:15:48.623Z,59.19
2018-10-09T13:18:16.417Z,59.07
2018-10-09T13:20:44.129Z,58.92
2018-10-09T13:23:11.790Z,59.44
2018-10-09T13:25:39.452Z,59.11
2018-10-09T13:28:07.090Z,59.31
2018-10-09T13:30:34.725Z,59.38
2018-10-09T13:33:02.353Z,59.33
2018-10-09T13:35:29.986Z,59.48
2018-10-09T13:37:57.617Z,59.52
2018-10-09T13:40:25.313Z,59.44
2018-10-09T13:42:52.972Z,58.95
2018-10-09T13:45:20.594Z,58.91
2018-10-09T13:47:48.299Z,58.73
2018-10-09T13:50:15.905Z,58.64
2018-10-09T13:52:43.565Z,59.23
2018-10-09T13:55:11.252Z,58.78
2018-10-09T13:57:38.866Z,58.72
2018-10-09T14:00:06.526Z,59.21
2018-10-09T14:02:34.165Z,59.13
2018-10-09T14:05:01.785Z,58.64
2018-10-09T14:07:29.425Z,58.93
2018-10-09T14:09:57.070Z,59.12
2018-10-09T14:12:24.733Z,59.37
2018-10-09T14:14:52.375Z,59.17
2018-10-09T14:17:20.013Z,59.38
2018-10-09T14:19:47.648Z,59.35
2018-10-09T14:22:15.303Z,58.55
2018-10-09T14:24:42.966Z,59.40
2018-10-09T14:27:10.633Z,58.87
2018-10-09T14:29:38.296Z,59.34
2018-10-09T14:32:05.927Z,58.71
2018-10-09T14:34:33.553Z,59.60
2018-10-09T14:37:01.179Z,58.74
2018-10-09T14:39:28.818Z,59.05
2018-10-09T14:41:56.529Z,58.48
2018-10-09T14:44:24.166Z,58.65
2018-10-09T14:46:51.825Z,59.17
2018-10-09T14:49:19.561Z,58.68
2018-10-09T14:51:47.181Z,58.55
2018-10-09T14:54:14.811Z,59.09
2018-10-09T14:56:42.429Z,58.60
2018-10-09T14:59:10.085Z,59.27
2018-10-09T15:01:37.747Z,59.29
2018-10-09T15:04:05.385Z,59.31
2018-10-09T15:06:33.022Z,58.95
2018-10-09T15:09:00.658Z,58.62
2018-10-09T15:11:28.432Z,59.13
2018-10-09T15:13:56.140Z,58.55
2018-10-09T15:16:23.877Z,59.05
2018-10-09T15:18:51.541Z,58.78
2018-10-09T15:21:19.214Z,58.92
2018-10-09T15:23:47.001Z,58.60
2018-10-09T15:26:14.741Z,58.59
2018-10-09T15:28:42.434Z,58.92
2018-10-09T15:31:10.125Z,58.97
2018-10-09T15:33:37.804Z,58.55
2018-10-09T15:36:05.493Z,58.55
2018-10-09T15:38:33.148Z,59.15
2018-10-09T15:41:00.821Z,59.25
2018-10-09T15:43:28.518Z,59.37
2018-10-09T15:45:56.272Z,58.64
2018-10-09T15:48:24.024Z,58.79
2018-10-09T15:50:51.708Z,58.41
2018-10-09T15:53:19.499Z,59.48
2018-10-09T15:55:47.180Z,58.96
2018-10-09T15:58:14.846Z,59.31
2018-10-09T16:00:42.485Z,58.81
2018-10-09T16:03:10.129Z,59.54
2018-10-09T16:05:37.793Z,58.83
2018-10-09T16:08:05.459Z,59.38
2018-10-09T16:10:33.081Z,58.92
2018-10-09T16:13:00.738Z,58.81
2018-10-09T16:15:28.365Z,58.96
2018-10-09T16:17:56.001Z,59.57
2018-10-09T16:20:23.628Z,59.57
2018-10-09T16:22:51.264Z,58.82
2018-10-09T16:25:18.921Z,59.36
2018-10-09T16:27:46.673Z,58.69
2018-10-09T16:30:14.293Z,58.85
2018-10-09T16:32:42.060Z,58.43
2018-10-09T16:35:09.598Z,59.05
2018-10-09T16:37:37.224Z,58.90
2018-10-09T16:40:04.865Z,59.54
2018-10-09T16:42:32.489Z,58.86
2018-10-09T16:45:00.147Z,58.77
2018-10-09T16:47:27.831Z,59.28
2018-10-09T16:49:55.408Z,59.05
2018-10-09T16:52:23.230Z,59.29
2018-10-09T16:54:50.869Z,58.99
2018-10-09T16:57:18.490Z,59.20
2018-10-09T16:59:46.117Z,59.29
2018-10-09T17:02:13.750Z,58.79
2018-10-09T17:04:41.399Z,59.00
2018-10-09T17:07:09.049Z,58.59
2018-10-09T17:09:36.678Z,59.20
2018-10-09T17:12:04.314Z,58.81
2018-10-09T17:14:31.933Z,58.94
2018-10-09T17:16:59.570Z,58.81
2018-10-09T17:19:27.198Z,58.80
2018-10-09T17:21:54.828Z,58.73
2018-10-09T17:24:22.466Z,58.87
2018-10-09T17:26:50.189Z,59.36
2018-10-09T17:29:17.790Z,59.57
2018-10-09T17:31:45.428Z,59.50
2018-10-09T17:34:13.060Z,59.74
2018-10-09T17:36:41.051Z,59.20
2018-10-09T17:39:09.587Z,59.75
2018-10-09T17:41:37.587Z,59.13
2018-10-09T17:44:05.212Z,59.80
2018-10-09T17:46:32.876Z,59.44
2018-10-09T17:49:00.574Z,59.13
2018-10-09T17:51:28.212Z,59.51
2018-10-09T17:53:55.855Z,59.31
2018-10-09T17:56:23.491Z,59.83
2018-10-09T17:58:51.130Z,59.22
2018-10-09T18:01:18.779Z,59.35
2018-10-09T18:03:46.486Z,59.76
2018-10-09T18:06:14.179Z,59.29
2018-10-09T18:08:42.181Z,59.21
2018-10-09T18:11:09.851Z,59.82
2018-10-09T18:13:37.529Z,58.99
2018-10-09T18:16:05.301Z,59.95
2018-10-09T18:18:33.012Z,59.70
2018-10-09T18:21:00.661Z,59.28
2018-10-09T18:23:28.388Z,59.84
2018-10-09T18:25:56.050Z,59.44
2018-10-09T18:28:23.682Z,59.44
2018-10-09T18:30:51.417Z,59.25
2018-10-09T18:33:19.362Z,60.20
2018-10-09T18:35:46.996Z,59.53
2018-10-09T18:38:14.835Z,59.44
2018-10-09T18:40:43.027Z,59.66
2018-10-09T18:43:10.604Z,60.19
2018-10-09T18:45:38.390Z,59.42
2018-10-09T18:48:06.129Z,59.42
2018-10-09T18:50:33.863Z,59.52
2018-10-09T18:53:01.570Z,59.35
2018-10-09T18:55:29.342Z,59.93
2018-10-09T18:57:57.131Z,60.15
2018-10-09T19:00:24.848Z,60.16
2018-10-09T19:02:58.991Z,59.85
2018-10-09T19:05:26.777Z,59.91
2018-10-09T19:07:54.602Z,59.82
2018-10-09T19:10:22.337Z,59.60
2018-10-09T19:12:50.155Z,59.32
2018-10-09T19:15:17.879Z,59.83
2018-10-09T19:17:45.591Z,59.66
2018-10-09T19:20:13.399Z,59.94
2018-10-09T19:22:41.140Z,59.68
2018-10-09T19:25:09.030Z,60.12
2018-10-09T19:27:36.766Z,59.87
2018-10-09T19:30:04.720Z,59.74
2018-10-09T19:32:32.546Z,60.29
2018-10-09T19:35:00.221Z,60.63
2018-10-09T19:37:28.002Z,60.30
2018-10-09T19:39:55.742Z,59.65
2018-10-09T19:42:23.531Z,59.64
2018-10-09T19:44:51.326Z,59.61
2018-10-09T19:47:19.120Z,60.31
2018-10-09T19:49:46.844Z,59.61
2018-10-09T19:52:14.598Z,59.58
2018-10-09T19:54:42.289Z,60.07
2018-10-09T19:57:10.084Z,59.99
2018-10-09T19:59:37.914Z,60.22
2018-10-09T20:02:05.706Z,60.12
2018-10-09T20:04:33.473Z,59.81
2018-10-09T20:07:07.894Z,59.65
2018-10-09T20:09:35.756Z,60.25
2018-10-09T20:12:03.558Z,59.79
2018-10-09T20:14:31.383Z,59.80
2018-10-09T20:16:59.077Z,60.26
2018-10-09T20:19:26.833Z,59.75
2018-10-09T20:21:54.625Z,60.48
2018-10-09T20:24:22.481Z,59.67
2018-10-09T20:26:50.314Z,60.45
2018-10-09T20:29:18.012Z,59.94
2018-10-09T20:31:45.678Z,59.52
2018-10-09T20:34:13.469Z,60.03
2018-10-09T20:36:41.140Z,59.97
2018-10-09T20:39:08.883Z,60.07
2018-10-09T20:41:36.638Z,60.49
2018-10-09T20:44:04.349Z,60.54
2018-10-09T20:46:32.050Z,60.58
2018-10-09T20:48:59.723Z,60.67
2018-10-09T20:51:27.400Z,60.28
2018-10-09T20:53:55.118Z,60.72
2018-10-09T20:56:22.797Z,60.81
2018-10-09T20:58:50.482Z,60.79
2018-10-09T21:01:18.191Z,60.45
2018-10-09T21:03:45.844Z,60.79
2018-10-09T21:06:13.832Z,60.73
2018-10-09T21:08:41.435Z,60.08
2018-10-09T21:11:09.345Z,60.09
2018-10-09T21:13:37.062Z,60.66
2018-10-09T21:16:04.709Z,60.25
2018-10-09T21:18:32.409Z,60.96
2018-10-09T21:21:00.067Z,60.73
2018-10-09T21:23:27.833Z,60.48
2018-10-09T21:25:55.526Z,60.98
2018-10-09T21:28:23.181Z,61.02
2018-10-09T21:30:50.841Z,60.75
2018-10-09T21:33:18.521Z,61.00
2018-10-09T21:35:46.213Z,60.89
2018-10-09T21:38:13.891Z,60.31
2018-10-09T21:40:41.668Z,60.50
2018-10-09T21:43:09.346Z,60.78
2018-10-09T21:45:37.009Z,60.50
2018-10-09T21:48:05.330Z,60.86
2018-10-09T21:50:32.978Z,60.44
2018-10-09T21:53:00.858Z,61.10
2018-10-09T21:55:29.077Z,60.95
2018-10-09T21:57:57.809Z,60.54
2018-10-09T22:00:25.547Z,60.32
2018-10-09T22:02:53.776Z,60.65
2018-10-09T22:05:21.587Z,60.27
2018-10-09T22:07:49.275Z,60.26
2018-10-09T22:10:17.201Z,60.34
2018-10-09T22:12:44.892Z,60.30
2018-10-09T22:15:12.625Z,60.81
2018-10-09T22:17:40.335Z,60.97
2018-10-09T22:20:07.990Z,60.97
2018-10-09T22:22:35.666Z,61.46
2018-10-09T22:25:03.486Z,61.03
2018-10-09T22:27:31.228Z,60.19
2018-10-09T22:29:58.967Z,60.72
2018-10-09T22:32:26.716Z,60.90
2018-10-09T22:34:54.429Z,60.11
2018-10-09T22:37:22.105Z,60.13
2018-10-09T22:39:49.788Z,59.96
2018-10-09T22:42:17.498Z,60.85
2018-10-09T22:44:45.157Z,60.79
2018-10-09T22:47:12.917Z,59.79
2018-10-09T22:49:40.584Z,60.61
2018-10-09T22:52:08.300Z,60.32
2018-10-09T22:54:35.973Z,59.86
2018-10-09T22:57:03.625Z,60.41
2018-10-09T22:59:31.386Z,60.06
2018-10-09T23:01:59.142Z,60.94
2018-10-09T23:04:26.930Z,60.96
2018-10-09T23:06:54.619Z,60.41
2018-10-09T23:09:22.286Z,60.94
2018-10-09T23:11:49.965Z,60.47
2018-10-09T23:14:18.026Z,60.41
2018-10-09T23:16:45.717Z,60.63
2018-10-09T23:19:13.481Z,60.60
2018-10-09T23:21:41.186Z,60.98
2018-10-09T23:24:09.108Z,60.33
2018-10-09T23:26:36.794Z,61.30
2018-10-09T23:29:04.455Z,60.83
2018-10-09T23:31:32.107Z,60.63
2018-10-09T23:33:59.827Z,61.12
2018-10-09T23:36:27.646Z,60.54
2018-10-09T23:38:55.348Z,60.33
2018-10-09T23:41:23.227Z,60.58
2018-10-09T23:43:50.925Z,61.18
2018-10-09T23:46:18.682Z,61.31
2018-10-09T23:48:46.370Z,61.27
2018-10-09T23:51:14.012Z,61.09
2018-10-09T23:53:41.736Z,60.58
2018-10-09T23:56:09.410Z,61.18
2018-10-09T23:58:37.077Z,60.74
